sensor_id;sensor_type;location;lat;lon;timestamp;P1;durP1;ratioP1;P2;durP2;ratioP2
21034;SDS011;10676;50.848;3.272;2024-03-08T00:00:08;50.43;;;35.83;;
21034;SDS011;10676;50.848;3.272;2024-03-08T00:02:35;54.83;;;36.70;;
21034;SDS011;10676;50.848;3.272;2024-03-08T00:05:02;51.17;;;36.20;;
21034;SDS011;10676;50.848;3.272;2024-03-08T00:07:29;51.10;;;35.97;;
21034;SDS011;10676;50.848;3.272;2024-03-08T00:09:54;55.37;;;37.00;;
21034;SDS011;10676;50.848;3.272;2024-03-08T00:12:20;61.47;;;37.83;;
21034;SDS011;10676;50.848;3.272;2024-03-08T00:14:46;52.93;;;36.33;;
21034;SDS011;10676;50.848;3.272;2024-03-08T00:17:11;51.73;;;36.13;;
21034;SDS011;10676;50.848;3.272;2024-03-08T00:19:37;52.73;;;36.93;;
21034;SDS011;10676;50.848;3.272;2024-03-08T00:22:03;53.83;;;37.50;;
21034;SDS011;10676;50.848;3.272;2024-03-08T00:24:29;54.50;;;39.27;;
21034;SDS011;10676;50.848;3.272;2024-03-08T00:26:55;54.13;;;38.67;;
21034;SDS011;10676;50.848;3.272;2024-03-08T00:29:21;55.27;;;37.97;;
21034;SDS011;10676;50.848;3.272;2024-03-08T00:31:47;57.93;;;39.37;;
21034;SDS011;10676;50.848;3.272;2024-03-08T00:34:13;59.07;;;38.97;;
21034;SDS011;10676;50.848;3.272;2024-03-08T00:36:38;56.33;;;38.67;;
21034;SDS011;10676;50.848;3.272;2024-03-08T00:39:04;58.33;;;39.60;;
21034;SDS011;10676;50.848;3.272;2024-03-08T00:41:32;54.70;;;40.03;;
21034;SDS011;10676;50.848;3.272;2024-03-08T00:43:58;55.27;;;38.90;;
21034;SDS011;10676;50.848;3.272;2024-03-08T00:46:23;63.43;;;39.37;;
21034;SDS011;10676;50.848;3.272;2024-03-08T00:48:50;54.90;;;39.47;;
21034;SDS011;10676;50.848;3.272;2024-03-08T00:51:15;54.07;;;39.17;;
21034;SDS011;10676;50.848;3.272;2024-03-08T00:53:41;55.30;;;38.07;;
21034;SDS011;10676;50.848;3.272;2024-03-08T00:56:08;58.00;;;39.53;;
21034;SDS011;10676;50.848;3.272;2024-03-08T00:58:36;57.90;;;39.07;;
21034;SDS011;10676;50.848;3.272;2024-03-08T01:01:02;57.30;;;39.80;;
21034;SDS011;10676;50.848;3.272;2024-03-08T01:03:29;55.77;;;39.30;;
21034;SDS011;10676;50.848;3.272;2024-03-08T01:05:57;53.17;;;38.77;;
21034;SDS011;10676;50.848;3.272;2024-03-08T01:08:22;55.43;;;39.77;;
21034;SDS011;10676;50.848;3.272;2024-03-08T01:10:48;55.37;;;39.23;;
21034;SDS011;10676;50.848;3.272;2024-03-08T01:13:15;54.20;;;39.17;;
21034;SDS011;10676;50.848;3.272;2024-03-08T01:15:41;55.17;;;39.80;;
21034;SDS011;10676;50.848;3.272;2024-03-08T01:18:07;55.23;;;39.10;;
21034;SDS011;10676;50.848;3.272;2024-03-08T01:20:33;53.37;;;38.30;;
21034;SDS011;10676;50.848;3.272;2024-03-08T01:22:58;54.17;;;39.43;;
21034;SDS011;10676;50.848;3.272;2024-03-08T01:25:24;59.87;;;39.73;;
21034;SDS011;10676;50.848;3.272;2024-03-08T01:27:50;58.93;;;39.47;;
21034;SDS011;10676;50.848;3.272;2024-03-08T01:30:15;56.30;;;39.27;;
21034;SDS011;10676;50.848;3.272;2024-03-08T01:32:42;55.23;;;38.00;;
21034;SDS011;10676;50.848;3.272;2024-03-08T01:35:09;60.00;;;39.10;;
21034;SDS011;10676;50.848;3.272;2024-03-08T01:37:35;57.07;;;38.33;;
21034;SDS011;10676;50.848;3.272;2024-03-08T01:40:01;56.10;;;40.13;;
21034;SDS011;10676;50.848;3.272;2024-03-08T01:42:28;59.67;;;38.90;;
21034;SDS011;10676;50.848;3.272;2024-03-08T01:44:54;55.40;;;38.50;;
21034;SDS011;10676;50.848;3.272;2024-03-08T01:47:21;53.30;;;38.53;;
21034;SDS011;10676;50.848;3.272;2024-03-08T01:49:50;60.20;;;38.67;;
21034;SDS011;10676;50.848;3.272;2024-03-08T01:52:16;54.63;;;38.97;;
21034;SDS011;10676;50.848;3.272;2024-03-08T01:54:44;51.53;;;36.97;;
21034;SDS011;10676;50.848;3.272;2024-03-08T01:57:10;51.60;;;37.93;;
21034;SDS011;10676;50.848;3.272;2024-03-08T01:59:37;57.70;;;37.50;;
21034;SDS011;10676;50.848;3.272;2024-03-08T02:02:03;56.10;;;38.60;;
21034;SDS011;10676;50.848;3.272;2024-03-08T02:04:31;56.50;;;37.93;;
21034;SDS011;10676;50.848;3.272;2024-03-08T02:06:56;53.83;;;37.70;;
21034;SDS011;10676;50.848;3.272;2024-03-08T02:09:25;56.97;;;38.33;;
21034;SDS011;10676;50.848;3.272;2024-03-08T02:11:51;54.57;;;36.00;;
21034;SDS011;10676;50.848;3.272;2024-03-08T02:14:17;54.83;;;37.20;;
21034;SDS011;10676;50.848;3.272;2024-03-08T02:16:43;57.10;;;36.27;;
21034;SDS011;10676;50.848;3.272;2024-03-08T02:19:09;55.73;;;36.83;;
21034;SDS011;10676;50.848;3.272;2024-03-08T02:21:35;55.40;;;37.23;;
21034;SDS011;10676;50.848;3.272;2024-03-08T02:24:02;56.40;;;36.73;;
21034;SDS011;10676;50.848;3.272;2024-03-08T02:26:28;49.97;;;35.67;;
21034;SDS011;10676;50.848;3.272;2024-03-08T02:28:55;49.50;;;34.93;;
21034;SDS011;10676;50.848;3.272;2024-03-08T02:31:20;53.27;;;36.40;;
21034;SDS011;10676;50.848;3.272;2024-03-08T02:33:46;53.00;;;35.87;;
21034;SDS011;10676;50.848;3.272;2024-03-08T02:36:12;57.97;;;36.73;;
21034;SDS011;10676;50.848;3.272;2024-03-08T02:38:39;54.30;;;36.63;;
21034;SDS011;10676;50.848;3.272;2024-03-08T02:41:06;53.73;;;34.43;;
21034;SDS011;10676;50.848;3.272;2024-03-08T02:43:33;55.03;;;36.20;;
21034;SDS011;10676;50.848;3.272;2024-03-08T02:45:59;53.03;;;36.03;;
21034;SDS011;10676;50.848;3.272;2024-03-08T02:48:25;50.80;;;35.90;;
21034;SDS011;10676;50.848;3.272;2024-03-08T02:50:51;52.60;;;35.50;;
21034;SDS011;10676;50.848;3.272;2024-03-08T02:53:16;55.10;;;36.10;;
21034;SDS011;10676;50.848;3.272;2024-03-08T02:55:44;54.30;;;36.40;;
21034;SDS011;10676;50.848;3.272;2024-03-08T02:58:09;55.23;;;36.67;;
21034;SDS011;10676;50.848;3.272;2024-03-08T03:00:38;51.33;;;36.40;;
21034;SDS011;10676;50.848;3.272;2024-03-08T03:03:05;56.73;;;36.97;;
21034;SDS011;10676;50.848;3.272;2024-03-08T03:05:31;59.60;;;36.73;;
21034;SDS011;10676;50.848;3.272;2024-03-08T03:07:58;53.93;;;36.50;;
21034;SDS011;10676;50.848;3.272;2024-03-08T03:10:24;53.53;;;36.40;;
21034;SDS011;10676;50.848;3.272;2024-03-08T03:12:51;55.60;;;36.30;;
21034;SDS011;10676;50.848;3.272;2024-03-08T03:15:17;59.77;;;37.87;;
21034;SDS011;10676;50.848;3.272;2024-03-08T03:17:47;53.77;;;36.40;;
21034;SDS011;10676;50.848;3.272;2024-03-08T03:20:13;53.37;;;35.23;;
21034;SDS011;10676;50.848;3.272;2024-03-08T03:22:40;53.80;;;36.33;;
21034;SDS011;10676;50.848;3.272;2024-03-08T03:25:06;57.83;;;36.50;;
21034;SDS011;10676;50.848;3.272;2024-03-08T03:27:36;53.90;;;35.93;;
21034;SDS011;10676;50.848;3.272;2024-03-08T03:30:02;56.63;;;35.37;;
21034;SDS011;10676;50.848;3.272;2024-03-08T03:32:46;64.47;;;37.10;;
21034;SDS011;10676;50.848;3.272;2024-03-08T03:35:16;58.67;;;36.80;;
21034;SDS011;10676;50.848;3.272;2024-03-08T03:37:42;57.63;;;36.37;;
21034;SDS011;10676;50.848;3.272;2024-03-08T03:40:16;52.73;;;35.67;;
21034;SDS011;10676;50.848;3.272;2024-03-08T03:42:44;52.90;;;35.77;;
21034;SDS011;10676;50.848;3.272;2024-03-08T03:45:10;57.60;;;36.80;;
21034;SDS011;10676;50.848;3.272;2024-03-08T03:47:36;55.67;;;36.80;;
21034;SDS011;10676;50.848;3.272;2024-03-08T03:50:03;59.73;;;36.93;;
21034;SDS011;10676;50.848;3.272;2024-03-08T03:52:30;57.67;;;36.97;;
21034;SDS011;10676;50.848;3.272;2024-03-08T03:54:56;59.97;;;36.73;;
21034;SDS011;10676;50.848;3.272;2024-03-08T03:57:22;54.43;;;36.73;;
21034;SDS011;10676;50.848;3.272;2024-03-08T03:59:48;54.07;;;36.60;;
21034;SDS011;10676;50.848;3.272;2024-03-08T04:02:16;55.43;;;37.27;;
21034;SDS011;10676;50.848;3.272;2024-03-08T04:04:42;54.37;;;37.30;;
21034;SDS011;10676;50.848;3.272;2024-03-08T04:07:09;55.20;;;37.13;;
21034;SDS011;10676;50.848;3.272;2024-03-08T04:09:35;56.13;;;36.40;;
21034;SDS011;10676;50.848;3.272;2024-03-08T04:12:00;56.07;;;36.90;;
21034;SDS011;10676;50.848;3.272;2024-03-08T04:14:26;55.20;;;36.47;;
21034;SDS011;10676;50.848;3.272;2024-03-08T04:16:52;61.30;;;38.90;;
21034;SDS011;10676;50.848;3.272;2024-03-08T04:19:17;60.83;;;37.83;;
21034;SDS011;10676;50.848;3.272;2024-03-08T04:21:44;65.73;;;38.40;;
21034;SDS011;10676;50.848;3.272;2024-03-08T04:24:10;60.67;;;38.07;;
21034;SDS011;10676;50.848;3.272;2024-03-08T04:26:36;59.43;;;36.63;;
21034;SDS011;10676;50.848;3.272;2024-03-08T04:29:02;61.40;;;38.00;;
21034;SDS011;10676;50.848;3.272;2024-03-08T04:31:28;57.30;;;38.80;;
21034;SDS011;10676;50.848;3.272;2024-03-08T04:33:56;58.37;;;37.77;;
21034;SDS011;10676;50.848;3.272;2024-03-08T04:36:22;59.47;;;38.30;;
21034;SDS011;10676;50.848;3.272;2024-03-08T04:38:50;58.40;;;37.60;;
21034;SDS011;10676;50.848;3.272;2024-03-08T04:41:16;54.13;;;37.60;;
21034;SDS011;10676;50.848;3.272;2024-03-08T04:43:43;61.77;;;37.80;;
21034;SDS011;10676;50.848;3.272;2024-03-08T04:46:09;57.40;;;37.83;;
21034;SDS011;10676;50.848;3.272;2024-03-08T04:48:35;56.50;;;37.73;;
21034;SDS011;10676;50.848;3.272;2024-03-08T04:51:02;58.17;;;38.67;;
21034;SDS011;10676;50.848;3.272;2024-03-08T04:53:29;55.67;;;37.73;;
21034;SDS011;10676;50.848;3.272;2024-03-08T04:55:55;61.10;;;38.83;;
21034;SDS011;10676;50.848;3.272;2024-03-08T04:58:23;60.20;;;38.77;;
21034;SDS011;10676;50.848;3.272;2024-03-08T05:00:48;58.73;;;37.97;;
21034;SDS011;10676;50.848;3.272;2024-03-08T05:03:15;57.87;;;37.37;;
21034;SDS011;10676;50.848;3.272;2024-03-08T05:05:41;56.17;;;37.30;;
21034;SDS011;10676;50.848;3.272;2024-03-08T05:08:07;60.87;;;38.10;;
21034;SDS011;10676;50.848;3.272;2024-03-08T05:10:32;55.30;;;36.50;;
21034;SDS011;10676;50.848;3.272;2024-03-08T05:12:58;58.67;;;37.43;;
21034;SDS011;10676;50.848;3.272;2024-03-08T05:15:24;61.40;;;37.93;;
21034;SDS011;10676;50.848;3.272;2024-03-08T05:17:49;68.90;;;38.73;;
21034;SDS011;10676;50.848;3.272;2024-03-08T05:20:15;58.20;;;38.37;;
21034;SDS011;10676;50.848;3.272;2024-03-08T05:22:42;59.80;;;37.70;;
21034;SDS011;10676;50.848;3.272;2024-03-08T05:25:08;60.03;;;37.37;;
21034;SDS011;10676;50.848;3.272;2024-03-08T05:27:34;56.13;;;37.00;;
21034;SDS011;10676;50.848;3.272;2024-03-08T05:30:01;58.43;;;38.37;;
21034;SDS011;10676;50.848;3.272;2024-03-08T05:32:29;61.93;;;38.43;;
21034;SDS011;10676;50.848;3.272;2024-03-08T05:34:55;63.53;;;38.83;;
21034;SDS011;10676;50.848;3.272;2024-03-08T05:37:20;60.53;;;37.97;;
21034;SDS011;10676;50.848;3.272;2024-03-08T05:39:47;60.20;;;38.50;;
21034;SDS011;10676;50.848;3.272;2024-03-08T05:42:13;60.30;;;38.23;;
21034;SDS011;10676;50.848;3.272;2024-03-08T05:44:39;59.07;;;38.50;;
21034;SDS011;10676;50.848;3.272;2024-03-08T05:47:05;57.23;;;38.33;;
21034;SDS011;10676;50.848;3.272;2024-03-08T05:49:32;56.07;;;37.43;;
21034;SDS011;10676;50.848;3.272;2024-03-08T05:51:59;65.57;;;39.80;;
21034;SDS011;10676;50.848;3.272;2024-03-08T05:54:25;62.60;;;38.63;;
21034;SDS011;10676;50.848;3.272;2024-03-08T05:56:52;60.73;;;39.67;;
21034;SDS011;10676;50.848;3.272;2024-03-08T05:59:18;63.23;;;39.03;;
21034;SDS011;10676;50.848;3.272;2024-03-08T06:01:43;56.40;;;37.53;;
21034;SDS011;10676;50.848;3.272;2024-03-08T06:04:11;56.77;;;38.93;;
21034;SDS011;10676;50.848;3.272;2024-03-08T06:06:36;57.07;;;37.70;;
21034;SDS011;10676;50.848;3.272;2024-03-08T06:09:02;60.17;;;38.40;;
21034;SDS011;10676;50.848;3.272;2024-03-08T06:11:36;64.73;;;40.07;;
21034;SDS011;10676;50.848;3.272;2024-03-08T06:14:03;59.50;;;38.13;;
21034;SDS011;10676;50.848;3.272;2024-03-08T06:16:28;60.50;;;37.10;;
21034;SDS011;10676;50.848;3.272;2024-03-08T06:18:57;64.77;;;38.27;;
21034;SDS011;10676;50.848;3.272;2024-03-08T06:21:23;62.37;;;36.00;;
21034;SDS011;10676;50.848;3.272;2024-03-08T06:23:51;60.63;;;36.30;;
21034;SDS011;10676;50.848;3.272;2024-03-08T06:26:21;62.50;;;37.77;;
21034;SDS011;10676;50.848;3.272;2024-03-08T06:28:50;63.80;;;40.60;;
21034;SDS011;10676;50.848;3.272;2024-03-08T06:31:16;64.57;;;40.07;;
21034;SDS011;10676;50.848;3.272;2024-03-08T06:33:42;65.70;;;40.70;;
21034;SDS011;10676;50.848;3.272;2024-03-08T06:36:08;63.50;;;38.30;;
21034;SDS011;10676;50.848;3.272;2024-03-08T06:38:34;66.83;;;41.00;;
21034;SDS011;10676;50.848;3.272;2024-03-08T06:41:00;65.60;;;39.97;;
21034;SDS011;10676;50.848;3.272;2024-03-08T06:43:28;66.80;;;40.60;;
21034;SDS011;10676;50.848;3.272;2024-03-08T06:45:59;64.17;;;39.80;;
21034;SDS011;10676;50.848;3.272;2024-03-08T06:48:25;62.27;;;38.17;;
21034;SDS011;10676;50.848;3.272;2024-03-08T06:50:50;61.43;;;38.83;;
21034;SDS011;10676;50.848;3.272;2024-03-08T06:53:16;61.23;;;39.10;;
21034;SDS011;10676;50.848;3.272;2024-03-08T06:55:44;60.00;;;38.90;;
21034;SDS011;10676;50.848;3.272;2024-03-08T06:58:10;59.43;;;39.43;;
21034;SDS011;10676;50.848;3.272;2024-03-08T07:00:36;60.33;;;38.90;;
21034;SDS011;10676;50.848;3.272;2024-03-08T07:03:02;57.07;;;37.07;;
21034;SDS011;10676;50.848;3.272;2024-03-08T07:05:29;54.47;;;37.23;;
21034;SDS011;10676;50.848;3.272;2024-03-08T07:07:55;53.73;;;36.37;;
21034;SDS011;10676;50.848;3.272;2024-03-08T07:10:21;51.37;;;33.57;;
21034;SDS011;10676;50.848;3.272;2024-03-08T07:12:49;52.57;;;34.93;;
21034;SDS011;10676;50.848;3.272;2024-03-08T07:15:16;50.60;;;34.50;;
21034;SDS011;10676;50.848;3.272;2024-03-08T07:17:44;53.83;;;34.60;;
21034;SDS011;10676;50.848;3.272;2024-03-08T07:20:13;49.53;;;33.17;;
21034;SDS011;10676;50.848;3.272;2024-03-08T07:22:41;49.65;;;33.28;;
21034;SDS011;10676;50.848;3.272;2024-03-08T07:25:07;49.08;;;33.03;;
21034;SDS011;10676;50.848;3.272;2024-03-08T07:27:42;48.92;;;31.88;;
21034;SDS011;10676;50.848;3.272;2024-03-08T07:30:08;47.00;;;31.65;;
21034;SDS011;10676;50.848;3.272;2024-03-08T07:32:37;48.67;;;32.58;;
21034;SDS011;10676;50.848;3.272;2024-03-08T07:35:03;41.85;;;30.98;;
21034;SDS011;10676;50.848;3.272;2024-03-08T07:37:29;42.47;;;31.58;;
21034;SDS011;10676;50.848;3.272;2024-03-08T07:39:56;42.90;;;31.13;;
21034;SDS011;10676;50.848;3.272;2024-03-08T07:42:23;43.92;;;31.70;;
21034;SDS011;10676;50.848;3.272;2024-03-08T07:44:49;46.25;;;31.65;;
21034;SDS011;10676;50.848;3.272;2024-03-08T07:47:15;43.38;;;31.10;;
21034;SDS011;10676;50.848;3.272;2024-03-08T07:49:42;41.90;;;30.63;;
21034;SDS011;10676;50.848;3.272;2024-03-08T07:52:09;47.17;;;30.63;;
21034;SDS011;10676;50.848;3.272;2024-03-08T07:54:40;41.10;;;29.30;;
21034;SDS011;10676;50.848;3.272;2024-03-08T07:57:06;43.88;;;30.52;;
21034;SDS011;10676;50.848;3.272;2024-03-08T07:59:32;39.53;;;29.95;;
21034;SDS011;10676;50.848;3.272;2024-03-08T08:01:58;44.28;;;29.58;;
21034;SDS011;10676;50.848;3.272;2024-03-08T08:04:24;38.53;;;28.17;;
21034;SDS011;10676;50.848;3.272;2024-03-08T08:06:51;36.78;;;27.58;;
21034;SDS011;10676;50.848;3.272;2024-03-08T08:09:19;39.72;;;27.55;;
21034;SDS011;10676;50.848;3.272;2024-03-08T08:11:53;41.08;;;28.17;;
21034;SDS011;10676;50.848;3.272;2024-03-08T08:14:20;40.10;;;27.55;;
21034;SDS011;10676;50.848;3.272;2024-03-08T08:16:46;36.70;;;26.95;;
21034;SDS011;10676;50.848;3.272;2024-03-08T08:19:14;38.42;;;27.40;;
21034;SDS011;10676;50.848;3.272;2024-03-08T08:21:40;34.90;;;26.30;;
21034;SDS011;10676;50.848;3.272;2024-03-08T08:24:06;34.65;;;26.25;;
21034;SDS011;10676;50.848;3.272;2024-03-08T08:26:32;34.97;;;26.48;;
21034;SDS011;10676;50.848;3.272;2024-03-08T08:28:59;35.95;;;26.02;;
21034;SDS011;10676;50.848;3.272;2024-03-08T08:31:25;35.40;;;25.30;;
21034;SDS011;10676;50.848;3.272;2024-03-08T08:33:51;37.67;;;26.10;;
21034;SDS011;10676;50.848;3.272;2024-03-08T08:36:23;37.30;;;25.25;;
21034;SDS011;10676;50.848;3.272;2024-03-08T08:38:49;34.03;;;25.45;;
21034;SDS011;10676;50.848;3.272;2024-03-08T08:41:15;35.67;;;25.40;;
21034;SDS011;10676;50.848;3.272;2024-03-08T08:43:42;36.08;;;25.83;;
21034;SDS011;10676;50.848;3.272;2024-03-08T08:46:09;38.45;;;25.98;;
21034;SDS011;10676;50.848;3.272;2024-03-08T08:48:41;34.15;;;24.90;;
21034;SDS011;10676;50.848;3.272;2024-03-08T08:51:09;35.53;;;25.33;;
21034;SDS011;10676;50.848;3.272;2024-03-08T08:53:37;36.08;;;25.40;;
21034;SDS011;10676;50.848;3.272;2024-03-08T08:56:06;37.83;;;25.55;;
21034;SDS011;10676;50.848;3.272;2024-03-08T08:58:33;40.25;;;25.95;;
21034;SDS011;10676;50.848;3.272;2024-03-08T09:00:58;41.67;;;26.85;;
21034;SDS011;10676;50.848;3.272;2024-03-08T09:03:24;38.22;;;25.60;;
21034;SDS011;10676;50.848;3.272;2024-03-08T09:05:52;34.90;;;25.00;;
21034;SDS011;10676;50.848;3.272;2024-03-08T09:08:18;34.92;;;25.75;;
21034;SDS011;10676;50.848;3.272;2024-03-08T09:10:44;38.10;;;25.42;;
21034;SDS011;10676;50.848;3.272;2024-03-08T09:13:09;37.03;;;25.27;;
21034;SDS011;10676;50.848;3.272;2024-03-08T09:15:36;34.00;;;24.85;;
21034;SDS011;10676;50.848;3.272;2024-03-08T09:18:05;34.80;;;25.98;;
21034;SDS011;10676;50.848;3.272;2024-03-08T09:20:31;34.42;;;25.83;;
21034;SDS011;10676;50.848;3.272;2024-03-08T09:22:57;36.05;;;25.60;;
21034;SDS011;10676;50.848;3.272;2024-03-08T09:25:23;32.92;;;24.92;;
21034;SDS011;10676;50.848;3.272;2024-03-08T09:27:49;34.22;;;25.95;;
21034;SDS011;10676;50.848;3.272;2024-03-08T09:30:15;36.08;;;25.13;;
21034;SDS011;10676;50.848;3.272;2024-03-08T09:32:41;34.33;;;25.55;;
21034;SDS011;10676;50.848;3.272;2024-03-08T09:35:08;33.90;;;24.75;;
21034;SDS011;10676;50.848;3.272;2024-03-08T09:37:36;33.67;;;25.13;;
21034;SDS011;10676;50.848;3.272;2024-03-08T09:40:02;32.55;;;24.73;;
21034;SDS011;10676;50.848;3.272;2024-03-08T09:42:34;30.90;;;24.33;;
21034;SDS011;10676;50.848;3.272;2024-03-08T09:45:07;32.67;;;24.65;;
21034;SDS011;10676;50.848;3.272;2024-03-08T09:47:44;31.65;;;25.15;;
21034;SDS011;10676;50.848;3.272;2024-03-08T09:50:10;32.97;;;25.40;;
21034;SDS011;10676;50.848;3.272;2024-03-08T09:52:39;31.67;;;25.10;;
21034;SDS011;10676;50.848;3.272;2024-03-08T09:55:05;31.60;;;24.48;;
21034;SDS011;10676;50.848;3.272;2024-03-08T09:57:32;33.17;;;24.67;;
21034;SDS011;10676;50.848;3.272;2024-03-08T10:00:01;32.53;;;25.70;;
21034;SDS011;10676;50.848;3.272;2024-03-08T10:02:26;30.58;;;25.05;;
21034;SDS011;10676;50.848;3.272;2024-03-08T10:04:53;31.15;;;24.13;;
21034;SDS011;10676;50.848;3.272;2024-03-08T10:07:19;31.50;;;24.08;;
21034;SDS011;10676;50.848;3.272;2024-03-08T10:09:44;29.73;;;24.23;;
21034;SDS011;10676;50.848;3.272;2024-03-08T10:12:15;32.38;;;24.63;;
21034;SDS011;10676;50.848;3.272;2024-03-08T10:14:42;29.40;;;24.02;;
21034;SDS011;10676;50.848;3.272;2024-03-08T10:17:08;31.90;;;24.90;;
21034;SDS011;10676;50.848;3.272;2024-03-08T10:19:34;32.33;;;24.92;;
21034;SDS011;10676;50.848;3.272;2024-03-08T10:22:00;34.80;;;24.55;;
21034;SDS011;10676;50.848;3.272;2024-03-08T10:24:26;33.08;;;24.50;;
21034;SDS011;10676;50.848;3.272;2024-03-08T10:26:52;32.42;;;24.80;;
21034;SDS011;10676;50.848;3.272;2024-03-08T10:29:19;30.42;;;23.90;;
21034;SDS011;10676;50.848;3.272;2024-03-08T10:31:45;31.92;;;24.50;;
21034;SDS011;10676;50.848;3.272;2024-03-08T10:34:10;29.73;;;23.27;;
21034;SDS011;10676;50.848;3.272;2024-03-08T10:36:36;32.92;;;24.65;;
21034;SDS011;10676;50.848;3.272;2024-03-08T10:39:05;29.48;;;22.80;;
21034;SDS011;10676;50.848;3.272;2024-03-08T10:41:52;30.20;;;23.65;;
21034;SDS011;10676;50.848;3.272;2024-03-08T10:47:00;31.40;;;25.75;;
21034;SDS011;10676;50.848;3.272;2024-03-08T10:52:50;31.17;;;25.35;;
21034;SDS011;10676;50.848;3.272;2024-03-08T10:55:17;29.60;;;24.38;;
21034;SDS011;10676;50.848;3.272;2024-03-08T10:57:45;30.90;;;25.90;;
21034;SDS011;10676;50.848;3.272;2024-03-08T11:00:12;32.03;;;25.92;;
21034;SDS011;10676;50.848;3.272;2024-03-08T11:02:39;29.50;;;25.50;;
21034;SDS011;10676;50.848;3.272;2024-03-08T11:13:37;27.75;;;24.42;;
21034;SDS011;10676;50.848;3.272;2024-03-08T11:16:50;29.58;;;25.73;;
21034;SDS011;10676;50.848;3.272;2024-03-08T11:18:55;30.10;;;25.05;;
21034;SDS011;10676;50.848;3.272;2024-03-08T11:21:32;34.00;;;26.45;;
21034;SDS011;10676;50.848;3.272;2024-03-08T11:24:02;28.60;;;24.90;;
21034;SDS011;10676;50.848;3.272;2024-03-08T11:26:32;31.83;;;25.85;;
21034;SDS011;10676;50.848;3.272;2024-03-08T11:34:49;32.10;;;25.65;;
21034;SDS011;10676;50.848;3.272;2024-03-08T11:37:19;28.45;;;25.33;;
21034;SDS011;10676;50.848;3.272;2024-03-08T11:42:16;32.05;;;24.52;;
21034;SDS011;10676;50.848;3.272;2024-03-08T11:44:43;28.88;;;24.38;;
21034;SDS011;10676;50.848;3.272;2024-03-08T11:47:13;28.98;;;24.88;;
21034;SDS011;10676;50.848;3.272;2024-03-08T11:49:39;27.98;;;23.95;;
21034;SDS011;10676;50.848;3.272;2024-03-08T11:52:12;28.67;;;23.58;;
21034;SDS011;10676;50.848;3.272;2024-03-08T11:54:51;27.48;;;24.00;;
21034;SDS011;10676;50.848;3.272;2024-03-08T11:57:22;28.88;;;23.77;;
21034;SDS011;10676;50.848;3.272;2024-03-08T11:59:51;31.23;;;24.83;;
21034;SDS011;10676;50.848;3.272;2024-03-08T12:02:17;30.50;;;23.52;;
21034;SDS011;10676;50.848;3.272;2024-03-08T12:04:44;27.65;;;23.45;;
21034;SDS011;10676;50.848;3.272;2024-03-08T12:07:11;29.52;;;24.40;;
21034;SDS011;10676;50.848;3.272;2024-03-08T12:09:39;35.78;;;24.30;;
21034;SDS011;10676;50.848;3.272;2024-03-08T12:12:11;32.42;;;24.83;;
21034;SDS011;10676;50.848;3.272;2024-03-08T12:14:37;27.02;;;23.63;;
21034;SDS011;10676;50.848;3.272;2024-03-08T12:17:03;30.42;;;24.58;;
21034;SDS011;10676;50.848;3.272;2024-03-08T12:19:30;31.50;;;24.63;;
21034;SDS011;10676;50.848;3.272;2024-03-08T12:21:56;27.80;;;23.85;;
21034;SDS011;10676;50.848;3.272;2024-03-08T12:24:22;26.95;;;23.55;;
21034;SDS011;10676;50.848;3.272;2024-03-08T12:26:48;29.83;;;24.63;;
21034;SDS011;10676;50.848;3.272;2024-03-08T12:29:21;30.45;;;25.08;;
21034;SDS011;10676;50.848;3.272;2024-03-08T12:31:56;32.28;;;25.23;;
21034;SDS011;10676;50.848;3.272;2024-03-08T12:34:26;26.70;;;23.40;;
21034;SDS011;10676;50.848;3.272;2024-03-08T12:36:53;27.48;;;23.67;;
21034;SDS011;10676;50.848;3.272;2024-03-08T12:39:22;36.88;;;24.52;;
21034;SDS011;10676;50.848;3.272;2024-03-08T12:41:52;27.05;;;23.80;;
21034;SDS011;10676;50.848;3.272;2024-03-08T12:44:19;27.05;;;24.02;;
21034;SDS011;10676;50.848;3.272;2024-03-08T12:46:46;27.92;;;23.65;;
21034;SDS011;10676;50.848;3.272;2024-03-08T12:49:13;25.40;;;22.42;;
21034;SDS011;10676;50.848;3.272;2024-03-08T12:51:43;27.70;;;23.15;;
21034;SDS011;10676;50.848;3.272;2024-03-08T12:54:09;26.17;;;23.25;;
21034;SDS011;10676;50.848;3.272;2024-03-08T12:56:35;26.95;;;23.23;;
21034;SDS011;10676;50.848;3.272;2024-03-08T12:59:03;27.73;;;24.00;;
21034;SDS011;10676;50.848;3.272;2024-03-08T13:01:30;29.58;;;23.60;;
21034;SDS011;10676;50.848;3.272;2024-03-08T13:03:57;26.20;;;22.83;;
21034;SDS011;10676;50.848;3.272;2024-03-08T13:06:23;25.10;;;22.38;;
21034;SDS011;10676;50.848;3.272;2024-03-08T13:08:52;29.65;;;22.77;;
21034;SDS011;10676;50.848;3.272;2024-03-08T13:11:19;30.60;;;23.48;;
21034;SDS011;10676;50.848;3.272;2024-03-08T13:13:45;26.23;;;23.20;;
21034;SDS011;10676;50.848;3.272;2024-03-08T13:16:11;28.33;;;23.65;;
21034;SDS011;10676;50.848;3.272;2024-03-08T13:18:40;28.92;;;23.13;;
21034;SDS011;10676;50.848;3.272;2024-03-08T13:21:09;26.42;;;23.55;;
21034;SDS011;10676;50.848;3.272;2024-03-08T13:23:40;26.17;;;22.38;;
21034;SDS011;10676;50.848;3.272;2024-03-08T13:26:10;27.88;;;23.85;;
21034;SDS011;10676;50.848;3.272;2024-03-08T13:28:41;28.40;;;23.35;;
21034;SDS011;10676;50.848;3.272;2024-03-08T13:31:10;25.67;;;22.83;;
21034;SDS011;10676;50.848;3.272;2024-03-08T13:33:36;24.90;;;22.02;;
21034;SDS011;10676;50.848;3.272;2024-03-08T13:36:04;26.80;;;22.92;;
21034;SDS011;10676;50.848;3.272;2024-03-08T13:38:47;26.77;;;22.65;;
21034;SDS011;10676;50.848;3.272;2024-03-08T13:41:14;29.55;;;22.63;;
21034;SDS011;10676;50.848;3.272;2024-03-08T13:43:42;27.45;;;22.80;;
21034;SDS011;10676;50.848;3.272;2024-03-08T13:46:08;25.98;;;21.15;;
21034;SDS011;10676;50.848;3.272;2024-03-08T13:48:35;27.05;;;22.40;;
21034;SDS011;10676;50.848;3.272;2024-03-08T13:51:02;25.45;;;22.02;;
21034;SDS011;10676;50.848;3.272;2024-03-08T13:53:32;26.58;;;23.15;;
21034;SDS011;10676;50.848;3.272;2024-03-08T13:56:00;26.65;;;22.08;;
21034;SDS011;10676;50.848;3.272;2024-03-08T13:58:27;27.38;;;23.00;;
21034;SDS011;10676;50.848;3.272;2024-03-08T14:00:52;26.13;;;23.15;;
21034;SDS011;10676;50.848;3.272;2024-03-08T14:03:18;29.58;;;22.35;;
21034;SDS011;10676;50.848;3.272;2024-03-08T14:05:46;25.27;;;22.08;;
21034;SDS011;10676;50.848;3.272;2024-03-08T14:08:11;29.02;;;23.15;;
21034;SDS011;10676;50.848;3.272;2024-03-08T14:10:38;26.38;;;23.38;;
21034;SDS011;10676;50.848;3.272;2024-03-08T14:13:04;27.17;;;23.25;;
21034;SDS011;10676;50.848;3.272;2024-03-08T14:15:31;25.02;;;22.15;;
21034;SDS011;10676;50.848;3.272;2024-03-08T14:17:58;31.65;;;26.77;;
21034;SDS011;10676;50.848;3.272;2024-03-08T14:20:23;30.30;;;24.02;;
21034;SDS011;10676;50.848;3.272;2024-03-08T14:22:55;26.80;;;23.33;;
21034;SDS011;10676;50.848;3.272;2024-03-08T14:25:21;28.58;;;23.15;;
21034;SDS011;10676;50.848;3.272;2024-03-08T14:27:48;27.13;;;21.85;;
21034;SDS011;10676;50.848;3.272;2024-03-08T14:30:18;28.00;;;21.67;;
21034;SDS011;10676;50.848;3.272;2024-03-08T14:32:57;29.55;;;23.63;;
21034;SDS011;10676;50.848;3.272;2024-03-08T14:35:25;24.80;;;22.20;;
21034;SDS011;10676;50.848;3.272;2024-03-08T14:37:51;29.73;;;22.92;;
21034;SDS011;10676;50.848;3.272;2024-03-08T14:40:17;27.73;;;22.33;;
21034;SDS011;10676;50.848;3.272;2024-03-08T14:42:47;25.88;;;22.27;;